createdAt,value
2023-04-02T00:00:07.208Z,941.6
2023-04-02T00:01:08.953Z,941.6
2023-04-02T00:02:10.905Z,941.6
2023-04-02T00:03:13.043Z,941.5
2023-04-02T00:04:15.443Z,941.6
2023-04-02T00:05:17.483Z,941.6
2023-04-02T00:06:19.461Z,941.5
2023-04-02T00:07:21.419Z,941.5
2023-04-02T00:08:23.331Z,941.5
2023-04-02T00:09:25.083Z,941.5
2023-04-02T00:10:27.042Z,941.5
2023-04-02T00:11:28.881Z,941.6
2023-04-02T00:12:30.740Z,941.6
2023-04-02T00:13:32.560Z,941.6
2023-04-02T00:14:34.432Z,941.6
2023-04-02T00:15:37.098Z,941.6
2023-04-02T00:16:39.194Z,941.6
2023-04-02T00:17:41.110Z,941.6
2023-04-02T00:18:42.900Z,941.6
2023-04-02T00:19:44.636Z,941.6
2023-04-02T00:20:46.567Z,941.5
2023-04-02T00:21:48.311Z,941.5
2023-04-02T00:22:50.185Z,941.6
2023-04-02T00:23:52.005Z,941.6
2023-04-02T00:24:53.885Z,941.5
2023-04-02T00:25:55.806Z,941.5
2023-04-02T00:26:57.673Z,941.5
2023-04-02T00:27:59.507Z,941.5
2023-04-02T00:29:01.415Z,941.4
2023-04-02T00:30:03.313Z,941.3
2023-04-02T00:31:05.196Z,941.3
2023-04-02T00:32:07.238Z,941.4
2023-04-02T00:33:09.307Z,941.4
2023-04-02T00:34:11.136Z,941.3
2023-04-02T00:35:12.977Z,941.3
2023-04-02T00:36:15.034Z,941.3
2023-04-02T00:37:16.985Z,941.3
2023-04-02T00:38:18.960Z,941.3
2023-04-02T00:39:21.100Z,941.3
2023-04-02T00:40:22.937Z,941.3
2023-04-02T00:41:24.897Z,941.3
2023-04-02T00:42:26.741Z,941.3
2023-04-02T00:43:28.589Z,941.3
2023-04-02T00:44:30.453Z,941.3
2023-04-02T00:45:32.815Z,941.4
2023-04-02T00:46:35.394Z,941.4
2023-04-02T00:47:37.346Z,941.4
2023-04-02T00:48:39.408Z,941.5
2023-04-02T00:49:41.238Z,941.5
2023-04-02T00:50:43.109Z,941.4
2023-04-02T00:51:45.033Z,941.4
2023-04-02T00:52:46.814Z,941.4
2023-04-02T00:53:48.653Z,941.4
2023-04-02T00:54:50.585Z,941.4
2023-04-02T00:55:52.440Z,941.4
2023-04-02T00:56:54.491Z,941.4
2023-04-02T00:57:56.550Z,941.4
2023-04-02T00:58:58.388Z,941.4
2023-04-02T01:00:00.218Z,941.4
2023-04-02T01:01:02.258Z,941.4
2023-04-02T01:02:04.461Z,941.4
2023-04-02T01:03:06.929Z,941.4
2023-04-02T01:04:08.980Z,941.4
2023-04-02T01:05:10.934Z,941.4
2023-04-02T01:06:12.986Z,941.4
2023-04-02T01:07:14.836Z,941.4
2023-04-02T01:08:16.788Z,941.4
2023-04-02T01:09:18.655Z,941.4
2023-04-02T01:10:20.906Z,941.4
2023-04-02T01:11:23.047Z,941.5
2023-04-02T01:12:24.796Z,941.4
2023-04-02T01:13:26.746Z,941.5
2023-04-02T01:14:28.606Z,941.5
2023-04-02T01:15:30.724Z,941.6
2023-04-02T01:16:32.959Z,941.5
2023-04-02T01:17:35.194Z,941.5
2023-04-02T01:18:37.031Z,941.5
2023-04-02T01:19:39.080Z,941.5
2023-04-02T01:20:40.922Z,941.6
2023-04-02T01:21:42.792Z,941.5
2023-04-02T01:22:44.623Z,941.6
2023-04-02T01:23:46.588Z,941.6
2023-04-02T01:24:48.450Z,941.6
2023-04-02T01:25:50.303Z,941.6
2023-04-02T01:26:52.139Z,941.6
2023-04-02T01:27:53.990Z,941.6
2023-04-02T01:28:55.721Z,941.6
2023-04-02T01:29:57.681Z,941.6
2023-04-02T01:30:59.637Z,941.6
2023-04-02T01:32:01.501Z,941.6
2023-04-02T01:33:03.446Z,941.6
2023-04-02T01:34:05.465Z,941.6
2023-04-02T01:35:07.229Z,941.6
2023-04-02T01:36:09.300Z,941.6
2023-04-02T01:37:11.245Z,941.6
2023-04-02T01:38:13.015Z,941.6
2023-04-02T01:39:14.846Z,941.6
2023-04-02T01:40:16.728Z,941.6
2023-04-02T01:41:18.645Z,941.6
2023-04-02T01:42:20.388Z,941.6
2023-04-02T01:43:22.344Z,941.6
2023-04-02T01:44:24.297Z,941.6
2023-04-02T01:45:26.151Z,941.6
2023-04-02T01:46:28.107Z,941.6
2023-04-02T01:47:30.375Z,941.6
2023-04-02T01:48:32.200Z,941.7
2023-04-02T01:49:34.051Z,941.6
2023-04-02T01:50:35.913Z,941.6
2023-04-02T01:51:37.749Z,941.6
2023-04-02T01:52:39.716Z,941.6
2023-04-02T01:53:41.458Z,941.6
2023-04-02T01:54:43.322Z,941.7
2023-04-02T01:55:45.183Z,941.6
2023-04-02T01:56:47.341Z,941.6
2023-04-02T01:57:49.268Z,941.5
2023-04-02T01:58:51.112Z,941.6
2023-04-02T01:59:52.983Z,941.6
2023-04-02T02:00:54.825Z,941.6
2023-04-02T02:01:56.977Z,941.5
2023-04-02T02:02:58.939Z,941.5
2023-04-02T02:04:00.767Z,941.6
2023-04-02T02:05:02.628Z,941.5
2023-04-02T02:06:04.576Z,941.6
2023-04-02T02:07:06.432Z,941.5
2023-04-02T02:08:08.270Z,941.6
2023-04-02T02:09:10.181Z,941.6
2023-04-02T02:10:12.077Z,941.6
2023-04-02T02:11:14.054Z,941.6
2023-04-02T02:12:15.988Z,941.6
2023-04-02T02:13:18.050Z,941.6
2023-04-02T02:14:20.005Z,941.6
2023-04-02T02:15:21.847Z,941.6
2023-04-02T02:16:23.805Z,941.6
2023-04-02T02:17:25.973Z,941.6
2023-04-02T02:18:27.915Z,941.6
2023-04-02T02:19:29.748Z,941.6
2023-04-02T02:20:31.608Z,941.6
2023-04-02T02:21:33.461Z,941.6
2023-04-02T02:22:35.414Z,941.6
2023-04-02T02:23:37.254Z,941.6
2023-04-02T02:24:39.205Z,941.6
2023-04-02T02:25:41.053Z,941.6
2023-04-02T02:26:42.938Z,941.6
2023-04-02T02:27:44.868Z,941.6
2023-04-02T02:28:46.708Z,941.6
2023-04-02T02:29:48.568Z,941.6
2023-04-02T02:30:50.414Z,941.6
2023-04-02T02:31:52.385Z,941.6
2023-04-02T02:32:54.633Z,941.6
2023-04-02T02:33:56.575Z,941.6
2023-04-02T02:34:58.348Z,941.6
2023-04-02T02:36:00.394Z,941.6
2023-04-02T02:37:02.641Z,941.6
2023-04-02T02:38:04.485Z,941.5
2023-04-02T02:39:06.343Z,941.6
2023-04-02T02:40:08.190Z,941.5
2023-04-02T02:41:10.044Z,941.5
2023-04-02T02:42:11.814Z,941.5
2023-04-02T02:43:13.634Z,941.5
2023-04-02T02:44:15.600Z,941.5
2023-04-02T02:45:17.430Z,941.4
2023-04-02T02:46:19.246Z,941.5
2023-04-02T02:47:21.254Z,941.5
2023-04-02T02:48:23.202Z,941.5
2023-04-02T02:49:25.021Z,941.5
2023-04-02T02:50:26.997Z,941.6
2023-04-02T02:51:28.848Z,941.6
2023-04-02T02:52:30.588Z,941.5
2023-04-02T02:53:32.444Z,941.5
2023-04-02T02:54:34.390Z,941.5
2023-04-02T02:55:37.305Z,941.5
2023-04-02T02:56:39.640Z,941.5
2023-04-02T02:57:41.498Z,941.5
2023-04-02T02:58:43.863Z,941.5
2023-04-02T02:59:46.196Z,941.5
2023-04-02T03:00:48.055Z,941.6
2023-04-02T03:01:50.154Z,941.5
2023-04-02T03:02:52.462Z,941.5
2023-04-02T03:03:55.389Z,941.5
2023-04-02T03:04:57.610Z,941.5
2023-04-02T03:05:59.455Z,941.5
2023-04-02T03:07:01.411Z,941.6
2023-04-02T03:08:03.152Z,941.5
2023-04-02T03:09:05.007Z,941.5
2023-04-02T03:10:06.852Z,941.5
2023-04-02T03:11:08.699Z,941.6
2023-04-02T03:12:10.658Z,941.5
2023-04-02T03:13:12.623Z,941.5
2023-04-02T03:14:14.451Z,941.6
2023-04-02T03:15:16.312Z,941.6
2023-04-02T03:16:18.456Z,941.6
2023-04-02T03:17:20.432Z,941.6
2023-04-02T03:18:22.270Z,941.7
2023-04-02T03:19:24.119Z,941.8
2023-04-02T03:20:25.966Z,941.8
2023-04-02T03:21:27.817Z,941.7
2023-04-02T03:22:29.773Z,941.7
2023-04-02T03:23:31.619Z,941.7
2023-04-02T03:24:33.476Z,941.7
2023-04-02T03:25:36.084Z,941.8
2023-04-02T03:26:38.499Z,941.7
2023-04-02T03:27:40.465Z,941.7
2023-04-02T03:28:42.336Z,941.7
2023-04-02T03:29:44.256Z,941.7
2023-04-02T03:30:46.100Z,941.7
2023-04-02T03:31:48.057Z,941.7
2023-04-02T03:32:49.992Z,941.7
2023-04-02T03:33:51.763Z,941.7
2023-04-02T03:34:53.730Z,941.7
2023-04-02T03:35:55.610Z,941.7
2023-04-02T03:36:57.518Z,941.7
2023-04-02T03:37:59.470Z,941.8
2023-04-02T03:39:01.324Z,941.7
2023-04-02T03:40:03.195Z,941.8
2023-04-02T03:41:05.014Z,941.9
2023-04-02T03:42:06.902Z,941.9
2023-04-02T03:43:08.714Z,941.9
2023-04-02T03:44:10.601Z,941.9
2023-04-02T03:45:12.528Z,941.9
2023-04-02T03:46:14.475Z,941.9
2023-04-02T03:47:16.430Z,941.9
2023-04-02T03:48:18.294Z,941.9
2023-04-02T03:49:20.120Z,941.9
2023-04-02T03:50:22.081Z,941.9
2023-04-02T03:51:23.922Z,941.8
2023-04-02T03:52:25.779Z,941.8
2023-04-02T03:53:27.627Z,941.8
2023-04-02T03:54:29.474Z,941.8
2023-04-02T03:55:31.341Z,941.8
2023-04-02T03:56:33.192Z,941.9
2023-04-02T03:57:35.033Z,941.8
2023-04-02T03:58:36.889Z,941.8
2023-04-02T03:59:38.748Z,941.8
2023-04-02T04:00:40.687Z,941.7
2023-04-02T04:01:42.698Z,941.7
2023-04-02T04:02:44.893Z,941.7
2023-04-02T04:03:47.088Z,941.7
2023-04-02T04:04:49.072Z,941.8
2023-04-02T04:05:51.162Z,941.7
2023-04-02T04:06:53.003Z,941.7
2023-04-02T04:07:54.796Z,941.7
2023-04-02T04:08:56.707Z,941.8
2023-04-02T04:09:58.534Z,941.8
2023-04-02T04:11:00.535Z,941.8
2023-04-02T04:12:02.365Z,941.8
2023-04-02T04:13:04.431Z,941.8
2023-04-02T04:14:06.369Z,941.8
2023-04-02T04:15:08.243Z,941.8
2023-04-02T04:16:10.216Z,941.8
2023-04-02T04:17:12.126Z,941.8
2023-04-02T04:18:14.081Z,941.9
2023-04-02T04:19:16.024Z,941.9
2023-04-02T04:20:17.878Z,942
2023-04-02T04:21:19.736Z,942
2023-04-02T04:22:21.581Z,942
2023-04-02T04:23:23.423Z,942
2023-04-02T04:24:25.279Z,942
2023-04-02T04:25:27.141Z,942
2023-04-02T04:26:29.071Z,942
2023-04-02T04:27:30.926Z,942
2023-04-02T04:28:32.773Z,942
2023-04-02T04:29:34.631Z,942
2023-04-02T04:30:36.516Z,942
2023-04-02T04:31:38.552Z,942.1
2023-04-02T04:32:40.603Z,942.1
2023-04-02T04:33:42.446Z,942.1
2023-04-02T04:34:44.198Z,942.1
2023-04-02T04:35:46.186Z,942.1
2023-04-02T04:36:48.301Z,942.1
2023-04-02T04:37:50.151Z,942.1
2023-04-02T04:38:51.925Z,942.1
2023-04-02T04:39:53.640Z,942.1
2023-04-02T04:40:55.597Z,942.1
2023-04-02T04:41:57.546Z,942.2
2023-04-02T04:42:59.401Z,942.2
2023-04-02T04:44:01.373Z,942.2
2023-04-02T04:45:03.339Z,942.2
2023-04-02T04:46:05.491Z,942.2
2023-04-02T04:47:07.517Z,942.2
2023-04-02T04:48:09.475Z,942.2
2023-04-02T04:49:11.332Z,942.2
2023-04-02T04:50:13.176Z,942.2
2023-04-02T04:51:15.122Z,942.1
2023-04-02T04:52:16.970Z,942.2
2023-04-02T04:53:18.822Z,942.2
2023-04-02T04:54:20.767Z,942.1
2023-04-02T04:55:22.626Z,942.1
2023-04-02T04:56:24.471Z,942.2
2023-04-02T04:57:26.531Z,942.2
2023-04-02T04:58:28.494Z,942.2
2023-04-02T04:59:30.323Z,942.2
2023-04-02T05:00:32.181Z,942.1
2023-04-02T05:01:34.207Z,942.1
2023-04-02T05:02:36.401Z,942.1
2023-04-02T05:03:38.222Z,942.2
2023-04-02T05:04:40.415Z,942.1
2023-04-02T05:05:42.455Z,942.2
2023-04-02T05:06:44.228Z,942.2
2023-04-02T05:07:46.147Z,942.2
2023-04-02T05:08:48.015Z,942.2
2023-04-02T05:09:49.957Z,942.2
2023-04-02T05:10:51.803Z,942.2
2023-04-02T05:11:53.659Z,942.2
2023-04-02T05:12:55.611Z,942.2
2023-04-02T05:13:57.536Z,942.2
2023-04-02T05:14:59.403Z,942.2
2023-04-02T05:16:01.908Z,942.2
2023-04-02T05:17:03.969Z,942.2
2023-04-02T05:18:05.950Z,942.1
2023-04-02T05:19:07.936Z,942.1
2023-04-02T05:20:09.805Z,942.1
2023-04-02T05:21:11.626Z,942.1
2023-04-02T05:22:13.385Z,942.2
2023-04-02T05:23:15.121Z,942.3
2023-04-02T05:24:16.985Z,942.3
2023-04-02T05:25:19.040Z,942.3
2023-04-02T05:26:20.884Z,942.3
2023-04-02T05:27:22.738Z,942.3
2023-04-02T05:28:24.585Z,942.3
2023-04-02T05:29:26.443Z,942.3
2023-04-02T05:30:28.381Z,942.3
2023-04-02T05:31:30.351Z,942.3
2023-04-02T05:32:32.309Z,942.3
2023-04-02T05:33:34.344Z,942.3
2023-04-02T05:34:36.196Z,942.2
2023-04-02T05:35:38.911Z,942.3
2023-04-02T05:36:40.971Z,942.3
2023-04-02T05:37:42.762Z,942.3
2023-04-02T05:38:44.519Z,942.4
2023-04-02T05:39:46.368Z,942.3
2023-04-02T05:40:48.233Z,942.3
2023-04-02T05:41:50.072Z,942.4
2023-04-02T05:42:51.914Z,942.4
2023-04-02T05:43:53.762Z,942.5
2023-04-02T05:44:55.724Z,942.5
2023-04-02T05:45:57.464Z,942.4
2023-04-02T05:46:59.443Z,942.5
2023-04-02T05:48:01.619Z,942.5
2023-04-02T05:49:04.050Z,942.5
2023-04-02T05:50:05.820Z,942.5
2023-04-02T05:51:07.758Z,942.5
2023-04-02T05:52:09.701Z,942.5
2023-04-02T05:53:11.640Z,942.5
2023-04-02T05:54:13.601Z,942.5
2023-04-02T05:55:15.443Z,942.5
2023-04-02T05:56:17.198Z,942.5
2023-04-02T05:57:20.398Z,942.4
2023-04-02T05:58:37.140Z,942.5
2023-04-02T05:59:39.440Z,942.5
2023-04-02T06:00:41.285Z,942.5
2023-04-02T06:01:43.150Z,942.5
2023-04-02T06:02:45.242Z,942.5
2023-04-02T06:03:47.411Z,942.6
2023-04-02T06:04:49.514Z,942.6
2023-04-02T06:05:51.408Z,942.6
2023-04-02T06:06:53.201Z,942.6
2023-04-02T06:07:55.060Z,942.6
2023-04-02T06:08:56.901Z,942.6
2023-04-02T06:09:58.759Z,942.6
2023-04-02T06:11:00.604Z,942.6
2023-04-02T06:12:02.494Z,942.6
2023-04-02T06:13:04.317Z,942.6
2023-04-02T06:14:06.253Z,942.7
2023-04-02T06:15:08.139Z,942.7
2023-04-02T06:16:09.994Z,942.6
2023-04-02T06:17:11.805Z,942.6
2023-04-02T06:18:13.660Z,942.6
2023-04-02T06:19:15.835Z,942.6
2023-04-02T06:20:17.761Z,942.5
2023-04-02T06:21:19.613Z,942.5
2023-04-02T06:22:21.458Z,942.6
2023-04-02T06:23:23.218Z,942.6
2023-04-02T06:24:24.967Z,942.6
2023-04-02T06:25:26.893Z,942.6
2023-04-02T06:26:28.774Z,942.6
2023-04-02T06:27:30.533Z,942.6
2023-04-02T06:28:32.368Z,942.5
2023-04-02T06:29:34.320Z,942.5
2023-04-02T06:30:36.281Z,942.5
2023-04-02T06:31:38.220Z,942.5
2023-04-02T06:32:40.297Z,942.5
2023-04-02T06:33:42.222Z,942.5
2023-04-02T06:34:44.208Z,942.6
2023-04-02T06:35:46.244Z,942.6
2023-04-02T06:36:48.286Z,942.5
2023-04-02T06:37:50.149Z,942.5
2023-04-02T06:38:51.998Z,942.6
2023-04-02T06:39:53.749Z,942.6
2023-04-02T06:40:59.218Z,942.5
2023-04-02T06:42:01.027Z,942.6
2023-04-02T06:43:02.866Z,942.5
2023-04-02T06:44:04.728Z,942.5
2023-04-02T06:45:06.511Z,942.5
2023-04-02T06:46:08.446Z,942.5
2023-04-02T06:47:10.476Z,942.5
2023-04-02T06:48:12.442Z,942.5
2023-04-02T06:49:14.275Z,942.5
2023-04-02T06:50:16.058Z,942.5
2023-04-02T06:51:17.982Z,942.5
2023-04-02T06:52:19.931Z,942.6
2023-04-02T06:53:21.846Z,942.6
2023-04-02T06:54:23.742Z,942.5
2023-04-02T06:55:25.700Z,942.6
2023-04-02T06:56:27.649Z,942.6
2023-04-02T06:57:29.762Z,942.6
2023-04-02T06:58:32.066Z,942.6
2023-04-02T06:59:33.902Z,942.6
2023-04-02T07:00:35.765Z,942.7
2023-04-02T07:01:37.765Z,942.7
2023-04-02T07:02:39.908Z,942.7
2023-04-02T07:03:41.923Z,942.7
2023-04-02T07:04:43.974Z,942.7
2023-04-02T07:05:45.851Z,942.7
2023-04-02T07:06:47.677Z,942.7
2023-04-02T07:07:49.523Z,942.7
2023-04-02T07:08:51.481Z,942.7
2023-04-02T07:09:53.406Z,942.7
2023-04-02T07:10:55.284Z,942.7
2023-04-02T07:11:57.119Z,942.7
2023-04-02T07:12:58.807Z,942.7
2023-04-02T07:14:00.637Z,942.7
2023-04-02T07:15:02.588Z,942.8
2023-04-02T07:16:04.860Z,942.8
2023-04-02T07:17:07.187Z,942.8
2023-04-02T07:18:09.368Z,942.8
2023-04-02T07:19:11.309Z,942.8
2023-04-02T07:20:13.046Z,942.8
2023-04-02T07:21:14.831Z,942.8
2023-04-02T07:22:16.753Z,942.8
2023-04-02T07:23:18.603Z,942.8
2023-04-02T07:24:20.456Z,942.8
2023-04-02T07:25:22.302Z,942.8
2023-04-02T07:26:24.155Z,942.8
2023-04-02T07:27:26.007Z,942.9
2023-04-02T07:28:27.844Z,942.9
2023-04-02T07:29:29.712Z,942.9
2023-04-02T07:30:31.646Z,942.9
2023-04-02T07:31:33.524Z,942.9
2023-04-02T07:32:35.665Z,942.9
2023-04-02T07:33:37.521Z,942.9
2023-04-02T07:34:39.258Z,942.8
2023-04-02T07:35:41.251Z,942.9
2023-04-02T07:36:43.102Z,942.9
2023-04-02T07:37:45.114Z,942.9
2023-04-02T07:38:47.072Z,942.9
2023-04-02T07:39:48.950Z,942.9
2023-04-02T07:40:50.772Z,942.8
2023-04-02T07:41:52.643Z,942.9
2023-04-02T07:42:54.467Z,942.9
2023-04-02T07:43:56.311Z,942.9
2023-04-02T07:44:58.173Z,942.9
2023-04-02T07:46:00.033Z,942.9
2023-04-02T07:47:02.324Z,942.9
2023-04-02T07:48:04.459Z,942.9
2023-04-02T07:49:06.595Z,942.8
2023-04-02T07:50:08.443Z,942.9
2023-04-02T07:51:10.290Z,942.8
2023-04-02T07:52:12.194Z,942.8
2023-04-02T07:53:14.089Z,942.8
2023-04-02T07:54:15.937Z,942.8
2023-04-02T07:55:17.717Z,942.8
2023-04-02T07:56:19.657Z,942.8
2023-04-02T07:57:21.684Z,942.7
2023-04-02T07:58:23.756Z,942.8
2023-04-02T07:59:25.612Z,942.8
2023-04-02T08:00:27.348Z,942.7
2023-04-02T08:01:29.221Z,942.8
2023-04-02T08:02:31.342Z,942.8
2023-04-02T08:03:33.837Z,942.8
2023-04-02T08:04:35.768Z,942.8
2023-04-02T08:05:38.437Z,942.7
2023-04-02T08:06:40.286Z,942.8
2023-04-02T08:07:42.262Z,942.8
2023-04-02T08:08:44.416Z,942.9
2023-04-02T08:09:46.128Z,942.8
2023-04-02T08:10:48.000Z,942.8
2023-04-02T08:11:51.370Z,942.8
2023-04-02T08:12:54.063Z,942.8
2023-04-02T08:13:55.922Z,942.8
2023-04-02T08:14:57.653Z,942.9
2023-04-02T08:15:59.610Z,942.9
2023-04-02T08:17:01.605Z,942.9
2023-04-02T08:18:03.779Z,942.8
2023-04-02T08:19:05.668Z,942.9
2023-04-02T08:20:07.563Z,942.9
2023-04-02T08:21:09.479Z,942.9
2023-04-02T08:22:11.325Z,942.9
2023-04-02T08:23:13.300Z,942.8
2023-04-02T08:24:15.224Z,942.9
2023-04-02T08:25:17.072Z,942.8
2023-04-02T08:26:19.144Z,942.8
2023-04-02T08:27:20.982Z,942.8
2023-04-02T08:28:22.942Z,942.8
2023-04-02T08:29:24.990Z,942.8
2023-04-02T08:30:26.945Z,942.9
2023-04-02T08:31:28.967Z,942.9
2023-04-02T08:32:30.884Z,942.9
2023-04-02T08:33:32.696Z,942.9
2023-04-02T08:34:34.658Z,942.9
2023-04-02T08:35:37.615Z,943
2023-04-02T08:36:40.188Z,942.9
2023-04-02T08:37:42.065Z,943
2023-04-02T08:38:43.915Z,942.9
2023-04-02T08:39:45.924Z,943
2023-04-02T08:40:47.798Z,943
2023-04-02T08:41:49.665Z,943
2023-04-02T08:42:51.494Z,943
2023-04-02T08:43:53.351Z,943
2023-04-02T08:44:55.294Z,943
2023-04-02T08:45:57.167Z,943
2023-04-02T08:46:59.102Z,943
2023-04-02T08:48:01.118Z,943
2023-04-02T08:49:03.103Z,943
2023-04-02T08:50:04.953Z,943
2023-04-02T08:51:06.801Z,943
2023-04-02T08:52:08.655Z,943
2023-04-02T08:53:10.618Z,943
2023-04-02T08:54:12.540Z,943
2023-04-02T08:55:14.511Z,943
2023-04-02T08:56:16.362Z,943
2023-04-02T08:57:18.345Z,943
2023-04-02T08:58:20.390Z,943
2023-04-02T08:59:22.321Z,943
2023-04-02T09:00:24.270Z,943
2023-04-02T09:01:26.472Z,942.9
2023-04-02T09:02:28.835Z,942.9
2023-04-02T09:03:30.963Z,942.9
2023-04-02T09:04:33.022Z,942.9
2023-04-02T09:05:35.588Z,942.9
2023-04-02T09:06:37.736Z,942.9
2023-04-02T09:07:39.586Z,942.9
2023-04-02T09:08:41.510Z,942.9
2023-04-02T09:09:43.437Z,942.9
2023-04-02T09:10:45.547Z,942.9
2023-04-02T09:11:47.497Z,942.9
2023-04-02T09:12:49.349Z,942.9
2023-04-02T09:13:51.197Z,942.9
2023-04-02T09:14:53.059Z,942.9
2023-04-02T09:15:55.110Z,942.8
2023-04-02T09:16:56.941Z,942.8
2023-04-02T09:18:00.278Z,942.7
2023-04-02T09:19:02.289Z,942.8
2023-04-02T09:20:04.131Z,942.8
2023-04-02T09:21:06.083Z,942.8
2023-04-02T09:22:07.942Z,942.8
2023-04-02T09:23:09.799Z,942.8
2023-04-02T09:24:11.569Z,942.9
2023-04-02T09:25:13.430Z,942.8
2023-04-02T09:26:15.336Z,942.8
2023-04-02T09:27:17.306Z,942.8
2023-04-02T09:28:19.246Z,942.8
2023-04-02T09:29:21.200Z,942.9
2023-04-02T09:30:23.040Z,942.8
2023-04-02T09:31:24.906Z,942.8
2023-04-02T09:32:26.971Z,942.9
2023-04-02T09:33:28.804Z,942.8
2023-04-02T09:34:30.659Z,942.8
2023-04-02T09:35:32.509Z,942.8
2023-04-02T09:36:34.606Z,942.8
2023-04-02T09:37:36.609Z,942.8
2023-04-02T09:38:38.561Z,942.8
2023-04-02T09:39:40.425Z,942.8
2023-04-02T09:40:42.388Z,942.8
2023-04-02T09:42:05.317Z,942.7
2023-04-02T09:43:07.784Z,942.7
2023-04-02T09:44:09.628Z,942.7
2023-04-02T09:45:11.586Z,942.7
2023-04-02T09:46:13.802Z,942.6
2023-04-02T09:47:15.683Z,942.7
2023-04-02T09:48:17.540Z,942.7
2023-04-02T09:49:19.385Z,942.7
2023-04-02T09:50:21.356Z,942.6
2023-04-02T09:51:23.202Z,942.6
2023-04-02T09:52:25.138Z,942.5
2023-04-02T09:53:26.901Z,942.6
2023-04-02T09:54:28.668Z,942.6
2023-04-02T09:55:30.490Z,942.6
2023-04-02T09:56:32.476Z,942.6
2023-04-02T09:57:34.440Z,942.6
2023-04-02T09:58:36.354Z,942.6
2023-04-02T09:59:38.188Z,942.6
2023-04-02T10:00:42.731Z,942.6
2023-04-02T10:01:44.969Z,942.6
2023-04-02T10:02:46.932Z,942.7
2023-04-02T10:03:48.873Z,942.6
2023-04-02T10:04:51.131Z,942.6
2023-04-02T10:05:52.972Z,942.6
2023-04-02T10:06:55.014Z,942.6
2023-04-02T10:07:56.802Z,942.7
2023-04-02T10:08:58.625Z,942.6
2023-04-02T10:10:00.485Z,942.6
2023-04-02T10:11:02.337Z,942.6
2023-04-02T10:12:04.304Z,942.6
2023-04-02T10:13:06.129Z,942.6
2023-04-02T10:14:07.979Z,942.6
2023-04-02T10:15:09.749Z,942.6
2023-04-02T10:16:11.920Z,942.6
2023-04-02T10:17:14.180Z,942.6
2023-04-02T10:18:16.195Z,942.5
2023-04-02T10:19:17.936Z,942.5
2023-04-02T10:20:19.796Z,942.5
2023-04-02T10:21:21.606Z,942.5
2023-04-02T10:22:23.428Z,942.5
2023-04-02T10:23:25.255Z,942.5
2023-04-02T10:24:27.208Z,942.5
2023-04-02T10:25:29.048Z,942.5
2023-04-02T10:26:30.897Z,942.5
2023-04-02T10:27:32.872Z,942.5
2023-04-02T10:28:34.720Z,942.5
2023-04-02T10:29:36.520Z,942.5
2023-04-02T10:30:38.710Z,942.5
2023-04-02T10:31:40.565Z,942.4
2023-04-02T10:32:42.626Z,942.5
2023-04-02T10:33:44.564Z,942.5
2023-04-02T10:34:46.440Z,942.5
2023-04-02T10:35:48.486Z,942.6
2023-04-02T10:36:50.535Z,942.5
2023-04-02T10:37:52.390Z,942.5
2023-04-02T10:38:54.328Z,942.6
2023-04-02T10:39:56.175Z,942.5
2023-04-02T10:40:58.038Z,942.5
2023-04-02T10:41:59.989Z,942.5
2023-04-02T10:43:01.864Z,942.5
2023-04-02T10:44:20.932Z,942.5
2023-04-02T10:45:22.773Z,942.5
2023-04-02T10:46:26.152Z,942.5
2023-04-02T10:47:28.085Z,942.5
2023-04-02T10:48:30.127Z,942.5
2023-04-02T10:49:32.096Z,942.5
2023-04-02T10:50:34.040Z,942.5
2023-04-02T10:51:35.881Z,942.5
2023-04-02T10:52:37.741Z,942.5
2023-04-02T10:53:39.580Z,942.5
2023-04-02T10:54:41.440Z,942.5
2023-04-02T10:55:43.494Z,942.5
2023-04-02T10:56:51.791Z,942.5
2023-04-02T10:57:53.643Z,942.5
2023-04-02T10:58:57.986Z,942.4
2023-04-02T11:00:00.009Z,942.4
2023-04-02T11:01:01.852Z,942.4
2023-04-02T11:02:03.944Z,942.4
2023-04-02T11:03:06.186Z,942.4
2023-04-02T11:04:08.226Z,942.4
2023-04-02T11:05:10.588Z,942.4
2023-04-02T11:06:12.746Z,942.3
2023-04-02T11:07:15.509Z,942.3
2023-04-02T11:08:17.474Z,942.4
2023-04-02T11:09:19.310Z,942.3
2023-04-02T11:10:21.484Z,942.3
2023-04-02T11:11:23.532Z,942.3
2023-04-02T11:12:25.351Z,942.3
2023-04-02T11:13:27.249Z,942.4
2023-04-02T11:14:29.318Z,942.4
2023-04-02T11:15:31.273Z,942.4
2023-04-02T11:16:33.616Z,942.3
2023-04-02T11:17:38.750Z,942.3
2023-04-02T11:18:40.679Z,942.3
2023-04-02T11:19:42.625Z,942.3
2023-04-02T11:20:44.584Z,942.3
2023-04-02T11:22:02.068Z,942.3
2023-04-02T11:23:08.356Z,942.3
2023-04-02T11:24:10.299Z,942.3
2023-04-02T11:25:12.299Z,942.4
2023-04-02T11:26:14.019Z,942.3
2023-04-02T11:27:15.855Z,942.3
2023-04-02T11:28:17.605Z,942.3
2023-04-02T11:29:19.446Z,942.3
2023-04-02T11:30:21.446Z,942.3
2023-04-02T11:31:23.406Z,942.3
2023-04-02T11:32:25.676Z,942.3
2023-04-02T11:33:42.207Z,942.2
2023-04-02T11:35:07.343Z,942.2
2023-04-02T11:36:09.534Z,942.2
2023-04-02T11:37:11.424Z,942.2
2023-04-02T11:38:13.157Z,942.2
2023-04-02T11:39:18.099Z,942.2
2023-04-02T11:40:20.051Z,942.2
2023-04-02T11:41:21.993Z,942.2
2023-04-02T11:42:23.757Z,942.2
2023-04-02T11:43:25.520Z,942.2
2023-04-02T11:44:27.338Z,942.2
2023-04-02T11:45:29.208Z,942.2
2023-04-02T11:46:32.099Z,942.2
2023-04-02T11:47:34.232Z,942.2
2023-04-02T11:48:36.602Z,942.2
2023-04-02T11:49:38.841Z,942.2
2023-04-02T11:50:41.105Z,942.2
2023-04-02T11:51:43.370Z,942.2
2023-04-02T11:52:45.317Z,942.2
2023-04-02T11:53:47.154Z,942.2
2023-04-02T11:54:49.006Z,942.2
2023-04-02T11:55:50.861Z,942.3
2023-04-02T11:56:52.850Z,942.3
2023-04-02T11:57:54.767Z,942.2
2023-04-02T11:58:56.611Z,942.2
2023-04-02T11:59:58.459Z,942.2
2023-04-02T12:01:00.435Z,942.2
2023-04-02T12:02:02.504Z,942.3
2023-04-02T12:03:04.552Z,942.2
2023-04-02T12:04:06.479Z,942.2
2023-04-02T12:05:08.462Z,942.2
2023-04-02T12:06:10.378Z,942.2
2023-04-02T12:07:12.236Z,942.2
2023-04-02T12:08:14.086Z,942.2
2023-04-02T12:09:15.940Z,942.1
2023-04-02T12:10:17.990Z,942.1
2023-04-02T12:11:19.734Z,942.1
2023-04-02T12:12:21.681Z,942.2
2023-04-02T12:13:23.531Z,942.1
2023-04-02T12:14:25.484Z,942.1
2023-04-02T12:15:27.267Z,942.1
2023-04-02T12:16:29.347Z,942.1
2023-04-02T12:17:31.588Z,942.1
2023-04-02T12:18:33.505Z,942.1
2023-04-02T12:19:35.354Z,942.2
2023-04-02T12:20:38.147Z,942.1
2023-04-02T12:21:40.070Z,942.1
2023-04-02T12:22:42.030Z,942
2023-04-02T12:23:43.879Z,942.1
2023-04-02T12:24:45.736Z,942
2023-04-02T12:25:47.495Z,942
2023-04-02T12:26:49.442Z,942
2023-04-02T12:27:51.383Z,942
2023-04-02T12:28:53.341Z,942
2023-04-02T12:29:55.178Z,942
2023-04-02T12:30:57.132Z,942
2023-04-02T12:31:59.213Z,942
2023-04-02T12:33:01.354Z,942
2023-04-02T12:34:03.194Z,942
2023-04-02T12:35:05.046Z,942.1
2023-04-02T12:36:07.055Z,942
2023-04-02T12:37:08.946Z,942
2023-04-02T12:38:10.796Z,942
2023-04-02T12:39:12.646Z,942
2023-04-02T12:40:14.639Z,942.1
2023-04-02T12:41:16.456Z,942
2023-04-02T12:42:18.298Z,942
2023-04-02T12:43:20.178Z,942
2023-04-02T12:44:21.957Z,942
2023-04-02T12:45:23.951Z,942
2023-04-02T12:46:26.062Z,942
2023-04-02T12:47:28.211Z,942
2023-04-02T12:48:30.230Z,942
2023-04-02T12:49:32.169Z,942
2023-04-02T12:50:35.486Z,942
2023-04-02T12:51:37.825Z,942
2023-04-02T12:52:39.777Z,942
2023-04-02T12:53:41.657Z,942
2023-04-02T12:54:43.573Z,942
2023-04-02T12:55:45.509Z,942
2023-04-02T12:56:47.447Z,941.9
2023-04-02T12:57:49.471Z,941.9
2023-04-02T12:58:51.288Z,941.9
2023-04-02T12:59:53.232Z,941.9
2023-04-02T13:00:55.182Z,941.8
2023-04-02T13:01:57.338Z,941.9
2023-04-02T13:02:59.634Z,941.8
2023-04-02T13:04:01.793Z,941.8
2023-04-02T13:05:03.822Z,941.8
2023-04-02T13:06:05.662Z,941.8
2023-04-02T13:07:07.526Z,941.8
2023-04-02T13:08:09.369Z,941.8
2023-04-02T13:09:11.232Z,941.8
2023-04-02T13:10:13.068Z,941.8
2023-04-02T13:11:15.122Z,941.8
2023-04-02T13:12:16.975Z,941.8
2023-04-02T13:13:18.824Z,941.8
2023-04-02T13:14:20.668Z,941.8
2023-04-02T13:15:22.522Z,941.8
2023-04-02T13:16:24.597Z,941.8
2023-04-02T13:17:26.745Z,941.8
2023-04-02T13:18:28.625Z,941.8
2023-04-02T13:19:30.538Z,941.8
2023-04-02T13:20:32.490Z,941.7
2023-04-02T13:21:34.551Z,941.8
2023-04-02T13:22:36.494Z,941.8
2023-04-02T13:23:38.370Z,941.7